createdAt,value
2023-05-21T00:01:47.380Z,72.59
2023-05-21T00:04:34.834Z,72.47
2023-05-21T00:07:21.982Z,72.59
2023-05-21T00:10:09.225Z,72.44
2023-05-21T00:12:56.280Z,71.71
2023-05-21T00:15:43.502Z,71.98
2023-05-21T00:18:30.485Z,71.96
2023-05-21T00:21:18.016Z,71.12
2023-05-21T00:24:05.104Z,71.62
2023-05-21T00:26:52.318Z,71.23
2023-05-21T00:29:39.342Z,70.75
2023-05-21T00:32:27.021Z,71.22
2023-05-21T00:35:14.497Z,71.03
2023-05-21T00:38:01.804Z,70.88
2023-05-21T00:40:48.783Z,70.88
2023-05-21T00:43:36.128Z,71.20
2023-05-21T00:46:23.220Z,70.58
2023-05-21T00:49:11.226Z,71.12
2023-05-21T00:51:58.512Z,70.90
2023-05-21T00:54:45.878Z,70.83
2023-05-21T00:57:33.864Z,70.82
2023-05-21T01:00:21.334Z,71.50
2023-05-21T01:03:08.565Z,70.85
2023-05-21T01:05:55.824Z,71.15
2023-05-21T01:08:42.765Z,71.59
2023-05-21T01:11:30.144Z,71.42
2023-05-21T01:14:17.611Z,71.43
2023-05-21T01:17:07.640Z,71.36
2023-05-21T01:19:54.979Z,71.47
2023-05-21T01:22:43.995Z,71.68
2023-05-21T01:25:31.135Z,71.85
2023-05-21T01:28:18.374Z,71.33
2023-05-21T01:31:05.503Z,71.54
2023-05-21T01:34:15.977Z,71.13
2023-05-21T01:37:12.032Z,71.21
2023-05-21T01:40:04.203Z,71.09
2023-05-21T01:42:53.728Z,71.24
2023-05-21T01:45:43.760Z,71.14
2023-05-21T01:48:32.828Z,71.11
2023-05-21T01:51:23.860Z,71.29
2023-05-21T01:54:10.907Z,71.56
2023-05-21T01:56:58.550Z,71.11
2023-05-21T01:59:45.933Z,71.26
2023-05-21T02:02:33.173Z,71.33
2023-05-21T02:05:20.527Z,71.36
2023-05-21T02:08:07.969Z,71.32
2023-05-21T02:10:57.960Z,71.60
2023-05-21T02:13:45.519Z,71.35
2023-05-21T02:16:32.922Z,72.10
2023-05-21T02:19:20.435Z,71.91
2023-05-21T02:22:07.533Z,72.15
2023-05-21T02:24:54.845Z,72.06
2023-05-21T02:27:41.757Z,71.63
2023-05-21T02:30:31.343Z,72.01
2023-05-21T02:33:18.270Z,72.12
2023-05-21T02:36:07.121Z,72.37
2023-05-21T02:38:54.172Z,72.55
2023-05-21T02:41:41.563Z,72.31
2023-05-21T02:44:28.615Z,72.05
2023-05-21T02:47:16.320Z,72.56
2023-05-21T02:50:03.423Z,73.00
2023-05-21T02:52:51.712Z,72.38
2023-05-21T02:55:38.979Z,73.00
2023-05-21T02:58:26.319Z,72.38
2023-05-21T03:01:13.329Z,72.38
2023-05-21T03:04:00.796Z,73.00
2023-05-21T03:06:47.874Z,72.99
2023-05-21T03:09:35.226Z,73.07
2023-05-21T03:12:22.318Z,72.59
2023-05-21T03:15:10.103Z,73.14
2023-05-21T03:17:57.247Z,73.44
2023-05-21T03:20:44.687Z,73.04
2023-05-21T03:23:31.712Z,73.71
2023-05-21T03:26:19.416Z,74.02
2023-05-21T03:29:07.001Z,73.84
2023-05-21T03:31:55.978Z,74.23
2023-05-21T03:34:43.434Z,73.51
2023-05-21T03:37:30.698Z,74.19
2023-05-21T03:40:19.194Z,74.25
2023-05-21T03:43:06.499Z,73.80
2023-05-21T03:45:53.925Z,74.02
2023-05-21T03:48:59.101Z,74.28
2023-05-21T03:51:48.148Z,74.44
2023-05-21T03:54:37.568Z,73.71
2023-05-21T03:57:28.265Z,74.43
2023-05-21T04:00:15.366Z,74.36
2023-05-21T04:03:07.565Z,73.99
2023-05-21T04:05:54.872Z,74.53
2023-05-21T04:08:42.924Z,74.40
2023-05-21T04:11:30.109Z,74.64
2023-05-21T04:14:17.199Z,73.91
2023-05-21T04:17:04.727Z,73.81
2023-05-21T04:19:52.318Z,73.93
2023-05-21T04:22:39.558Z,74.33
2023-05-21T04:25:26.982Z,74.75
2023-05-21T04:28:14.367Z,74.67
2023-05-21T04:31:01.524Z,74.29
2023-05-21T04:33:48.916Z,74.92
2023-05-21T04:36:35.930Z,74.81
2023-05-21T04:39:23.086Z,74.06
2023-05-21T04:42:10.430Z,74.77
2023-05-21T04:44:58.998Z,74.06
2023-05-21T04:47:47.620Z,73.40
2023-05-21T04:50:34.763Z,73.53
2023-05-21T04:53:22.572Z,72.98
2023-05-21T04:56:10.761Z,73.50
2023-05-21T04:58:57.874Z,74.07
2023-05-21T05:01:45.767Z,73.74
2023-05-21T05:04:32.890Z,73.39
2023-05-21T05:07:20.032Z,73.49
2023-05-21T05:10:07.144Z,73.01
2023-05-21T05:12:54.433Z,72.23
2023-05-21T05:15:41.727Z,72.55
2023-05-21T05:18:28.877Z,72.79
2023-05-21T05:21:16.111Z,72.84
2023-05-21T05:24:03.319Z,72.59
2023-05-21T05:26:52.225Z,72.03
2023-05-21T05:29:39.446Z,71.64
2023-05-21T05:32:27.250Z,71.51
2023-05-21T05:35:15.013Z,71.53
2023-05-21T05:38:02.274Z,72.12
2023-05-21T05:40:49.495Z,70.92
2023-05-21T05:43:36.595Z,71.56
2023-05-21T05:46:24.043Z,70.59
2023-05-21T05:49:13.166Z,69.87
2023-05-21T05:52:00.804Z,70.67
2023-05-21T05:54:47.948Z,70.03
2023-05-21T05:57:35.449Z,69.85
2023-05-21T06:00:31.635Z,70.67
2023-05-21T06:03:20.280Z,70.47
2023-05-21T06:06:08.122Z,70.32
2023-05-21T06:08:55.409Z,69.71
2023-05-21T06:11:42.549Z,69.48
2023-05-21T06:14:29.772Z,69.71
2023-05-21T06:17:17.194Z,69.12
2023-05-21T06:20:04.767Z,69.06
2023-05-21T06:22:52.184Z,69.13
2023-05-21T06:25:40.368Z,69.12
2023-05-21T06:28:28.758Z,68.52
2023-05-21T06:31:16.361Z,68.07
2023-05-21T06:34:04.572Z,68.56
2023-05-21T06:36:52.956Z,67.38
2023-05-21T06:39:40.370Z,67.88
2023-05-21T06:42:27.824Z,68.34
2023-05-21T06:45:50.023Z,67.21
2023-05-21T06:48:56.162Z,67.15
2023-05-21T06:51:43.175Z,67.38
2023-05-21T06:54:32.059Z,67.74
2023-05-21T06:57:20.976Z,67.18
2023-05-21T07:00:08.365Z,67.78
2023-05-21T07:02:56.306Z,67.05
2023-05-21T07:05:43.655Z,67.77
2023-05-21T07:08:30.849Z,66.83
2023-05-21T07:11:19.025Z,66.61
2023-05-21T07:14:06.257Z,66.50
2023-05-21T07:16:55.874Z,65.90
2023-05-21T07:19:42.984Z,66.35
2023-05-21T07:22:30.418Z,66.32
2023-05-21T07:25:17.604Z,66.64
2023-05-21T07:28:06.637Z,65.61
2023-05-21T07:30:55.453Z,66.23
2023-05-21T07:33:49.657Z,66.09
2023-05-21T07:36:38.515Z,65.07
2023-05-21T07:39:25.603Z,65.08
2023-05-21T07:42:13.046Z,65.41
2023-05-21T07:45:01.234Z,65.32
2023-05-21T07:47:51.516Z,64.66
2023-05-21T07:50:39.485Z,65.16
2023-05-21T07:53:26.691Z,64.37
2023-05-21T07:56:14.808Z,64.30
2023-05-21T07:59:03.085Z,64.84
2023-05-21T08:01:50.362Z,64.29
2023-05-21T08:04:40.040Z,64.45
2023-05-21T08:07:28.252Z,64.51
2023-05-21T08:10:16.686Z,64.39
2023-05-21T08:13:05.886Z,64.83
2023-05-21T08:15:53.590Z,64.43
2023-05-21T08:18:42.001Z,64.40
2023-05-21T08:21:29.181Z,63.94
2023-05-21T08:24:16.599Z,63.76
2023-05-21T08:27:03.554Z,63.97
2023-05-21T08:29:51.501Z,63.90
2023-05-21T08:32:38.702Z,64.34
2023-05-21T08:35:26.800Z,64.31
2023-05-21T08:38:40.380Z,64.55
2023-05-21T08:41:43.689Z,64.25
2023-05-21T08:44:32.431Z,64.13
2023-05-21T08:47:22.683Z,64.15
2023-05-21T08:50:11.391Z,63.97
2023-05-21T08:52:58.584Z,64.10
2023-05-21T08:55:45.854Z,63.95
2023-05-21T08:58:30.965Z,64.12
2023-05-21T09:01:18.541Z,64.36
2023-05-21T09:04:20.139Z,63.90
2023-05-21T09:07:11.716Z,63.41
2023-05-21T09:10:31.150Z,64.01
2023-05-21T09:13:19.246Z,63.38
2023-05-21T09:16:08.195Z,62.97
2023-05-21T09:18:55.696Z,63.66
2023-05-21T09:21:49.568Z,63.03
2023-05-21T09:24:42.015Z,63.34
2023-05-21T09:27:29.303Z,62.73
2023-05-21T09:30:16.326Z,62.63
2023-05-21T09:33:04.875Z,61.98
2023-05-21T09:35:53.256Z,62.03
2023-05-21T09:38:43.165Z,62.04
2023-05-21T09:41:30.109Z,61.52
2023-05-21T09:44:24.567Z,61.78
2023-05-21T09:47:17.535Z,61.24
2023-05-21T09:50:05.888Z,60.81
2023-05-21T09:52:56.695Z,59.90
2023-05-21T09:55:45.257Z,60.25
2023-05-21T09:58:32.265Z,59.34
2023-05-21T10:01:19.556Z,59.33
2023-05-21T10:04:14.581Z,58.46
2023-05-21T10:07:03.911Z,57.58
2023-05-21T10:09:51.490Z,56.55
2023-05-21T10:12:39.895Z,55.94
2023-05-21T10:15:29.880Z,55.36
2023-05-21T10:18:18.768Z,55.08
2023-05-21T10:21:15.568Z,54.95
2023-05-21T10:24:03.615Z,53.63
2023-05-21T10:26:51.380Z,53.74
2023-05-21T10:29:39.528Z,52.67
2023-05-21T10:32:27.501Z,52.64
2023-05-21T10:35:14.720Z,52.96
2023-05-21T10:38:03.601Z,51.75
2023-05-21T10:40:50.673Z,51.69
2023-05-21T10:43:43.794Z,51.87
2023-05-21T10:46:49.810Z,50.59
2023-05-21T10:49:55.061Z,50.50
2023-05-21T10:53:10.811Z,50.98
2023-05-21T10:56:29.756Z,50.57
2023-05-21T10:59:30.354Z,49.28
2023-05-21T11:02:18.049Z,48.88
2023-05-21T11:05:06.105Z,48.08
2023-05-21T11:08:12.745Z,47.98
2023-05-21T11:11:00.721Z,46.96
2023-05-21T11:13:49.868Z,46.19
2023-05-21T11:16:38.093Z,46.61
2023-05-21T11:19:25.244Z,45.60
2023-05-21T11:22:15.182Z,44.85
2023-05-21T11:25:02.358Z,45.00
2023-05-21T11:28:09.630Z,45.38
2023-05-21T11:30:56.983Z,44.30
2023-05-21T11:33:44.264Z,43.96
2023-05-21T11:36:35.967Z,44.21
2023-05-21T11:39:37.038Z,43.83
2023-05-21T11:42:24.261Z,43.35
2023-05-21T11:45:11.454Z,43.08
2023-05-21T11:48:00.481Z,43.04
2023-05-21T11:50:47.541Z,42.22
2023-05-21T11:53:34.945Z,42.01
2023-05-21T11:56:22.563Z,42.08
2023-05-21T11:59:09.756Z,42.04
2023-05-21T12:01:57.006Z,41.75
2023-05-21T12:04:44.102Z,42.04
2023-05-21T12:07:32.128Z,42.19
2023-05-21T12:10:20.861Z,42.26
2023-05-21T12:13:07.943Z,42.19
2023-05-21T12:15:55.218Z,42.00
2023-05-21T12:18:42.412Z,41.86
2023-05-21T12:21:29.670Z,41.74
2023-05-21T12:24:16.860Z,41.98
2023-05-21T12:27:04.222Z,41.85
2023-05-21T12:29:52.417Z,41.91
2023-05-21T12:32:41.428Z,42.00
2023-05-21T12:35:28.841Z,41.79
2023-05-21T12:38:16.243Z,42.06
2023-05-21T12:41:03.378Z,42.47
2023-05-21T12:43:53.821Z,42.17
2023-05-21T12:46:41.216Z,42.43
2023-05-21T12:49:28.469Z,42.58
2023-05-21T12:52:17.032Z,43.15
2023-05-21T12:55:09.733Z,43.12
2023-05-21T12:57:58.132Z,43.29
2023-05-21T13:00:45.225Z,43.98
2023-05-21T13:03:32.362Z,43.15
2023-05-21T13:06:19.976Z,43.99
2023-05-21T13:09:07.249Z,43.82
2023-05-21T13:11:54.239Z,44.00
2023-05-21T13:14:41.434Z,44.28
2023-05-21T13:17:28.492Z,45.33
2023-05-21T13:20:34.170Z,45.44
2023-05-21T13:23:21.145Z,45.75
2023-05-21T13:26:08.246Z,45.75
2023-05-21T13:28:55.276Z,45.65
2023-05-21T13:31:42.396Z,46.01
2023-05-21T13:34:30.967Z,46.72
2023-05-21T13:37:18.448Z,47.50
2023-05-21T13:40:05.964Z,47.23
2023-05-21T13:42:54.090Z,47.45
2023-05-21T13:45:41.427Z,47.44
2023-05-21T13:48:28.684Z,47.29
2023-05-21T13:51:25.515Z,47.61
2023-05-21T13:54:23.748Z,47.60
2023-05-21T13:57:10.941Z,48.23
2023-05-21T13:59:58.204Z,48.76
2023-05-21T14:02:45.795Z,48.69
2023-05-21T14:05:33.350Z,49.09
2023-05-21T14:08:20.550Z,49.29
2023-05-21T14:11:07.755Z,49.50
2023-05-21T14:13:54.799Z,49.58
2023-05-21T14:16:42.123Z,49.42
2023-05-21T14:19:29.329Z,49.63
2023-05-21T14:22:16.715Z,49.66
2023-05-21T14:25:03.715Z,49.81
2023-05-21T14:27:50.962Z,50.14
2023-05-21T14:30:37.931Z,50.25
2023-05-21T14:33:25.141Z,50.29
2023-05-21T14:36:12.154Z,50.31
2023-05-21T14:38:59.394Z,50.94
2023-05-21T14:41:47.788Z,50.55
2023-05-21T14:44:34.992Z,50.91
2023-05-21T14:47:22.210Z,50.90
2023-05-21T14:50:09.488Z,50.84
2023-05-21T14:52:56.483Z,51.50
2023-05-21T14:55:43.789Z,51.79
2023-05-21T14:58:30.787Z,51.35
2023-05-21T15:01:18.229Z,51.57
2023-05-21T15:04:05.261Z,51.39
2023-05-21T15:06:52.673Z,51.29
2023-05-21T15:09:39.721Z,51.38
2023-05-21T15:12:51.907Z,51.30
